sensor_id;sensor_type;location;lat;lon;timestamp;P1;durP1;ratioP1;P2;durP2;ratioP2
23009;SDS011;11671;49.990;8.028;2023-08-31T00:02:19;50.78;;;48.28;;
23009;SDS011;11671;49.990;8.028;2023-08-31T00:07:11;60.55;;;57.40;;
23009;SDS011;11671;49.990;8.028;2023-08-31T00:12:02;53.92;;;51.28;;
23009;SDS011;11671;49.990;8.028;2023-08-31T00:14:28;48.13;;;45.58;;
23009;SDS011;11671;49.990;8.028;2023-08-31T00:19:22;75.05;;;71.38;;
23009;SDS011;11671;49.990;8.028;2023-08-31T00:24:13;57.17;;;54.53;;
23009;SDS011;11671;49.990;8.028;2023-08-31T00:29:08;71.00;;;67.65;;
23009;SDS011;11671;49.990;8.028;2023-08-31T00:31:34;70.15;;;67.00;;
23009;SDS011;11671;49.990;8.028;2023-08-31T00:36:28;60.35;;;57.08;;
23009;SDS011;11671;49.990;8.028;2023-08-31T00:41:20;50.28;;;47.72;;
23009;SDS011;11671;49.990;8.028;2023-08-31T00:43:47;47.28;;;44.60;;
23009;SDS011;11671;49.990;8.028;2023-08-31T00:48:38;57.67;;;54.83;;
23009;SDS011;11671;49.990;8.028;2023-08-31T00:51:05;55.85;;;53.13;;
23009;SDS011;11671;49.990;8.028;2023-08-31T00:53:32;53.03;;;50.42;;
23009;SDS011;11671;49.990;8.028;2023-08-31T00:55:58;43.63;;;41.20;;
23009;SDS011;11671;49.990;8.028;2023-08-31T01:01:10;64.43;;;61.23;;
23009;SDS011;11671;49.990;8.028;2023-08-31T01:03:46;39.65;;;37.50;;
23009;SDS011;11671;49.990;8.028;2023-08-31T01:06:32;127.82;;;121.85;;
23009;SDS011;11671;49.990;8.028;2023-08-31T01:12:00;338.15;;;320.80;;
23009;SDS011;11671;49.990;8.028;2023-08-31T01:14:50;397.50;;;376.73;;
23009;SDS011;11671;49.990;8.028;2023-08-31T01:17:23;322.45;;;306.17;;
23009;SDS011;11671;49.990;8.028;2023-08-31T01:19:54;316.25;;;300.52;;
23009;SDS011;11671;49.990;8.028;2023-08-31T01:24:55;333.27;;;316.42;;
23009;SDS011;11671;49.990;8.028;2023-08-31T01:27:22;316.35;;;300.73;;
23009;SDS011;11671;49.990;8.028;2023-08-31T01:32:14;314.75;;;299.13;;
23009;SDS011;11671;49.990;8.028;2023-08-31T01:37:08;327.85;;;311.50;;
23009;SDS011;11671;49.990;8.028;2023-08-31T01:42:36;308.42;;;293.10;;
23009;SDS011;11671;49.990;8.028;2023-08-31T01:45:02;304.40;;;289.38;;
23009;SDS011;11671;49.990;8.028;2023-08-31T01:47:30;280.77;;;266.77;;
23009;SDS011;11671;49.990;8.028;2023-08-31T01:49:56;284.00;;;269.60;;
23009;SDS011;11671;49.990;8.028;2023-08-31T01:54:47;45.30;;;43.05;;
23009;SDS011;11671;49.990;8.028;2023-08-31T01:59:39;72.32;;;68.65;;
23009;SDS011;11671;49.990;8.028;2023-08-31T02:02:04;76.50;;;72.72;;
23009;SDS011;11671;49.990;8.028;2023-08-31T02:06:56;75.68;;;72.05;;
23009;SDS011;11671;49.990;8.028;2023-08-31T02:11:47;81.70;;;77.45;;
23009;SDS011;11671;49.990;8.028;2023-08-31T02:16:38;62.90;;;59.58;;
23009;SDS011;11671;49.990;8.028;2023-08-31T02:21:30;69.18;;;65.63;;
23009;SDS011;11671;49.990;8.028;2023-08-31T02:23:55;75.82;;;72.25;;
23009;SDS011;11671;49.990;8.028;2023-08-31T02:28:47;53.90;;;51.05;;
23009;SDS011;11671;49.990;8.028;2023-08-31T02:31:13;61.80;;;58.85;;
23009;SDS011;11671;49.990;8.028;2023-08-31T02:33:39;54.65;;;51.53;;
23009;SDS011;11671;49.990;8.028;2023-08-31T02:36:05;69.93;;;66.57;;
23009;SDS011;11671;49.990;8.028;2023-08-31T02:40:57;53.45;;;50.78;;
23009;SDS011;11671;49.990;8.028;2023-08-31T02:45:48;85.00;;;80.88;;
23009;SDS011;11671;49.990;8.028;2023-08-31T02:50:39;92.78;;;88.53;;
23009;SDS011;11671;49.990;8.028;2023-08-31T02:53:05;81.38;;;77.47;;
23009;SDS011;11671;49.990;8.028;2023-08-31T02:57:57;73.38;;;70.10;;
23009;SDS011;11671;49.990;8.028;2023-08-31T03:02:48;80.13;;;76.38;;
23009;SDS011;11671;49.990;8.028;2023-08-31T03:05:17;59.00;;;56.05;;
23009;SDS011;11671;49.990;8.028;2023-08-31T03:10:08;58.00;;;54.83;;
23009;SDS011;11671;49.990;8.028;2023-08-31T03:14:59;79.53;;;75.35;;
23009;SDS011;11671;49.990;8.028;2023-08-31T03:17:25;75.53;;;71.90;;
23009;SDS011;11671;49.990;8.028;2023-08-31T03:22:17;75.47;;;71.75;;
23009;SDS011;11671;49.990;8.028;2023-08-31T03:27:09;69.55;;;65.97;;
23009;SDS011;11671;49.990;8.028;2023-08-31T03:32:00;72.47;;;69.13;;
23009;SDS011;11671;49.990;8.028;2023-08-31T03:34:30;72.05;;;68.60;;
23009;SDS011;11671;49.990;8.028;2023-08-31T03:36:56;64.13;;;60.97;;
23009;SDS011;11671;49.990;8.028;2023-08-31T03:39:23;76.32;;;72.40;;
23009;SDS011;11671;49.990;8.028;2023-08-31T03:41:51;58.28;;;55.25;;
23009;SDS011;11671;49.990;8.028;2023-08-31T03:46:42;59.95;;;56.70;;
23009;SDS011;11671;49.990;8.028;2023-08-31T03:51:34;70.07;;;66.78;;
23009;SDS011;11671;49.990;8.028;2023-08-31T03:56:25;69.10;;;65.75;;
23009;SDS011;11671;49.990;8.028;2023-08-31T03:58:51;54.65;;;51.97;;
23009;SDS011;11671;49.990;8.028;2023-08-31T04:03:42;64.90;;;61.72;;
23009;SDS011;11671;49.990;8.028;2023-08-31T04:06:08;69.25;;;65.68;;
23009;SDS011;11671;49.990;8.028;2023-08-31T04:10:59;58.55;;;55.30;;
23009;SDS011;11671;49.990;8.028;2023-08-31T04:13:25;65.35;;;61.72;;
23009;SDS011;11671;49.990;8.028;2023-08-31T04:15:51;56.70;;;53.63;;
23009;SDS011;11671;49.990;8.028;2023-08-31T04:18:18;49.10;;;46.55;;
23009;SDS011;11671;49.990;8.028;2023-08-31T04:23:18;71.05;;;67.50;;
23009;SDS011;11671;49.990;8.028;2023-08-31T04:25:45;59.90;;;56.85;;
23009;SDS011;11671;49.990;8.028;2023-08-31T04:28:16;70.78;;;67.15;;
23009;SDS011;11671;49.990;8.028;2023-08-31T04:33:08;68.90;;;65.43;;
23009;SDS011;11671;49.990;8.028;2023-08-31T04:37:59;66.85;;;63.45;;
23009;SDS011;11671;49.990;8.028;2023-08-31T04:40:25;72.90;;;69.20;;
23009;SDS011;11671;49.990;8.028;2023-08-31T04:42:53;69.30;;;66.05;;
23009;SDS011;11671;49.990;8.028;2023-08-31T04:47:44;60.67;;;57.83;;
23009;SDS011;11671;49.990;8.028;2023-08-31T04:50:10;46.17;;;43.78;;
23009;SDS011;11671;49.990;8.028;2023-08-31T04:55:01;70.72;;;67.38;;
23009;SDS011;11671;49.990;8.028;2023-08-31T04:57:28;57.85;;;54.90;;
23009;SDS011;11671;49.990;8.028;2023-08-31T05:02:20;57.47;;;54.20;;
23009;SDS011;11671;49.990;8.028;2023-08-31T05:07:11;45.47;;;43.17;;
23009;SDS011;11671;49.990;8.028;2023-08-31T05:12:02;58.33;;;55.50;;
23009;SDS011;11671;49.990;8.028;2023-08-31T05:14:28;53.78;;;50.70;;
23009;SDS011;11671;49.990;8.028;2023-08-31T05:19:20;46.78;;;44.22;;
23009;SDS011;11671;49.990;8.028;2023-08-31T05:24:11;32.28;;;30.38;;
23009;SDS011;11671;49.990;8.028;2023-08-31T05:26:37;33.50;;;31.35;;
23009;SDS011;11671;49.990;8.028;2023-08-31T05:29:03;25.67;;;24.25;;
23009;SDS011;11671;49.990;8.028;2023-08-31T05:31:30;29.50;;;27.95;;
23009;SDS011;11671;49.990;8.028;2023-08-31T05:36:21;22.80;;;21.08;;
23009;SDS011;11671;49.990;8.028;2023-08-31T05:41:12;20.65;;;19.33;;
23009;SDS011;11671;49.990;8.028;2023-08-31T05:46:06;14.38;;;13.30;;
23009;SDS011;11671;49.990;8.028;2023-08-31T05:48:33;17.98;;;16.85;;
23009;SDS011;11671;49.990;8.028;2023-08-31T05:50:59;15.48;;;14.38;;
23009;SDS011;11671;49.990;8.028;2023-08-31T05:55:50;30.48;;;28.23;;
23009;SDS011;11671;49.990;8.028;2023-08-31T06:00:42;25.05;;;23.65;;
23009;SDS011;11671;49.990;8.028;2023-08-31T06:05:33;29.42;;;27.83;;
23009;SDS011;11671;49.990;8.028;2023-08-31T06:10:25;35.05;;;33.15;;
23009;SDS011;11671;49.990;8.028;2023-08-31T06:12:50;30.65;;;28.90;;
23009;SDS011;11671;49.990;8.028;2023-08-31T06:17:42;34.00;;;31.83;;
23009;SDS011;11671;49.990;8.028;2023-08-31T06:20:08;23.73;;;22.05;;
23009;SDS011;11671;49.990;8.028;2023-08-31T06:22:34;21.25;;;19.95;;
23009;SDS011;11671;49.990;8.028;2023-08-31T06:27:26;16.75;;;15.60;;
23009;SDS011;11671;49.990;8.028;2023-08-31T06:32:17;15.13;;;14.00;;
23009;SDS011;11671;49.990;8.028;2023-08-31T06:37:09;16.10;;;14.98;;
23009;SDS011;11671;49.990;8.028;2023-08-31T06:39:35;23.05;;;21.55;;
23009;SDS011;11671;49.990;8.028;2023-08-31T06:42:01;25.27;;;23.05;;
23009;SDS011;11671;49.990;8.028;2023-08-31T06:44:27;18.48;;;16.60;;
23009;SDS011;11671;49.990;8.028;2023-08-31T06:46:54;19.15;;;17.45;;
23009;SDS011;11671;49.990;8.028;2023-08-31T06:49:21;50.30;;;47.63;;
23009;SDS011;11671;49.990;8.028;2023-08-31T06:51:48;5.78;;;4.50;;
23009;SDS011;11671;49.990;8.028;2023-08-31T06:54:14;5.05;;;3.25;;
23009;SDS011;11671;49.990;8.028;2023-08-31T06:56:39;7.78;;;4.00;;
23009;SDS011;11671;49.990;8.028;2023-08-31T06:59:05;6.47;;;3.50;;
23009;SDS011;11671;49.990;8.028;2023-08-31T07:03:58;5.43;;;2.40;;
23009;SDS011;11671;49.990;8.028;2023-08-31T07:06:23;4.88;;;3.20;;
23009;SDS011;11671;49.990;8.028;2023-08-31T07:08:49;4.68;;;3.15;;
23009;SDS011;11671;49.990;8.028;2023-08-31T07:13:41;9.95;;;3.00;;
23009;SDS011;11671;49.990;8.028;2023-08-31T07:18:32;6.72;;;3.75;;
23009;SDS011;11671;49.990;8.028;2023-08-31T07:23:24;7.43;;;3.13;;
23009;SDS011;11671;49.990;8.028;2023-08-31T07:28:15;24.05;;;17.58;;
23009;SDS011;11671;49.990;8.028;2023-08-31T07:33:06;4.75;;;3.10;;
23009;SDS011;11671;49.990;8.028;2023-08-31T07:35:32;4.57;;;3.35;;
23009;SDS011;11671;49.990;8.028;2023-08-31T07:37:57;5.43;;;2.63;;
23009;SDS011;11671;49.990;8.028;2023-08-31T07:42:48;5.45;;;2.97;;
23009;SDS011;11671;49.990;8.028;2023-08-31T07:45:16;7.32;;;3.28;;
23009;SDS011;11671;49.990;8.028;2023-08-31T07:50:07;6.07;;;3.38;;
23009;SDS011;11671;49.990;8.028;2023-08-31T07:52:33;4.45;;;2.53;;
23009;SDS011;11671;49.990;8.028;2023-08-31T07:57:25;4.10;;;2.25;;
23009;SDS011;11671;49.990;8.028;2023-08-31T07:59:50;6.25;;;2.58;;
23009;SDS011;11671;49.990;8.028;2023-08-31T08:04:41;4.97;;;2.70;;
23009;SDS011;11671;49.990;8.028;2023-08-31T08:09:33;8.25;;;2.35;;
23009;SDS011;11671;49.990;8.028;2023-08-31T08:12:00;5.45;;;2.40;;
23009;SDS011;11671;49.990;8.028;2023-08-31T08:16:51;5.07;;;3.05;;
23009;SDS011;11671;49.990;8.028;2023-08-31T08:19:23;7.18;;;2.75;;
23009;SDS011;11671;49.990;8.028;2023-08-31T08:21:49;5.50;;;2.00;;
23009;SDS011;11671;49.990;8.028;2023-08-31T08:24:16;9.55;;;3.08;;
23009;SDS011;11671;49.990;8.028;2023-08-31T08:29:07;7.88;;;2.72;;
23009;SDS011;11671;49.990;8.028;2023-08-31T08:33:58;8.02;;;2.47;;
23009;SDS011;11671;49.990;8.028;2023-08-31T08:36:23;6.68;;;1.90;;
23009;SDS011;11671;49.990;8.028;2023-08-31T08:38:49;7.25;;;2.53;;
23009;SDS011;11671;49.990;8.028;2023-08-31T08:43:44;3.13;;;1.83;;
23009;SDS011;11671;49.990;8.028;2023-08-31T08:46:13;6.68;;;2.03;;
23009;SDS011;11671;49.990;8.028;2023-08-31T08:51:05;5.13;;;2.47;;
23009;SDS011;11671;49.990;8.028;2023-08-31T08:53:32;7.47;;;2.72;;
23009;SDS011;11671;49.990;8.028;2023-08-31T08:55:58;6.53;;;2.45;;
23009;SDS011;11671;49.990;8.028;2023-08-31T09:00:51;2.97;;;2.67;;
23009;SDS011;11671;49.990;8.028;2023-08-31T09:03:19;7.43;;;2.13;;
23009;SDS011;11671;49.990;8.028;2023-08-31T09:08:10;10.80;;;2.30;;
23009;SDS011;11671;49.990;8.028;2023-08-31T09:10:41;4.68;;;2.25;;
23009;SDS011;11671;49.990;8.028;2023-08-31T09:13:08;5.30;;;2.08;;
23009;SDS011;11671;49.990;8.028;2023-08-31T09:15:40;7.07;;;2.33;;
23009;SDS011;11671;49.990;8.028;2023-08-31T09:20:50;4.80;;;2.40;;
23009;SDS011;11671;49.990;8.028;2023-08-31T09:23:16;3.65;;;1.85;;
23009;SDS011;11671;49.990;8.028;2023-08-31T09:25:46;3.70;;;2.35;;
23009;SDS011;11671;49.990;8.028;2023-08-31T09:28:22;3.90;;;2.70;;
23009;SDS011;11671;49.990;8.028;2023-08-31T09:30:51;5.82;;;2.28;;
23009;SDS011;11671;49.990;8.028;2023-08-31T09:33:18;7.20;;;2.05;;
23009;SDS011;11671;49.990;8.028;2023-08-31T09:38:25;5.15;;;2.25;;
23009;SDS011;11671;49.990;8.028;2023-08-31T09:40:50;7.55;;;2.72;;
23009;SDS011;11671;49.990;8.028;2023-08-31T09:43:20;3.30;;;2.00;;
23009;SDS011;11671;49.990;8.028;2023-08-31T09:45:47;3.50;;;1.35;;
23009;SDS011;11671;49.990;8.028;2023-08-31T09:48:14;3.38;;;1.90;;
23009;SDS011;11671;49.990;8.028;2023-08-31T09:50:41;5.80;;;1.98;;
23009;SDS011;11671;49.990;8.028;2023-08-31T09:53:09;4.10;;;1.60;;
23009;SDS011;11671;49.990;8.028;2023-08-31T09:55:36;4.68;;;2.47;;
23009;SDS011;11671;49.990;8.028;2023-08-31T09:58:05;4.25;;;1.50;;
23009;SDS011;11671;49.990;8.028;2023-08-31T10:00:33;4.63;;;2.00;;
23009;SDS011;11671;49.990;8.028;2023-08-31T10:03:03;5.25;;;2.38;;
23009;SDS011;11671;49.990;8.028;2023-08-31T10:05:30;3.47;;;2.03;;
23009;SDS011;11671;49.990;8.028;2023-08-31T10:07:56;7.65;;;2.25;;
23009;SDS011;11671;49.990;8.028;2023-08-31T10:10:23;3.72;;;2.40;;
23009;SDS011;11671;49.990;8.028;2023-08-31T10:12:49;62.92;;;59.88;;
23009;SDS011;11671;49.990;8.028;2023-08-31T10:15:16;120.03;;;113.93;;
23009;SDS011;11671;49.990;8.028;2023-08-31T10:17:43;118.10;;;112.03;;
23009;SDS011;11671;49.990;8.028;2023-08-31T10:20:10;125.72;;;119.15;;
23009;SDS011;11671;49.990;8.028;2023-08-31T10:22:38;110.22;;;104.53;;
23009;SDS011;11671;49.990;8.028;2023-08-31T10:25:04;123.28;;;117.03;;
23009;SDS011;11671;49.990;8.028;2023-08-31T10:27:38;130.45;;;123.60;;
23009;SDS011;11671;49.990;8.028;2023-08-31T10:33:23;154.77;;;146.45;;
23009;SDS011;11671;49.990;8.028;2023-08-31T10:38:16;134.52;;;127.68;;
23009;SDS011;11671;49.990;8.028;2023-08-31T10:43:44;124.20;;;117.82;;
23009;SDS011;11671;49.990;8.028;2023-08-31T10:46:17;143.27;;;135.80;;
23009;SDS011;11671;49.990;8.028;2023-08-31T10:48:50;141.88;;;134.48;;
23009;SDS011;11671;49.990;8.028;2023-08-31T10:51:16;152.77;;;144.30;;
23009;SDS011;11671;49.990;8.028;2023-08-31T10:53:45;87.07;;;82.40;;
23009;SDS011;11671;49.990;8.028;2023-08-31T10:56:11;4.05;;;2.40;;
23009;SDS011;11671;49.990;8.028;2023-08-31T10:58:36;4.00;;;2.33;;
23009;SDS011;11671;49.990;8.028;2023-08-31T11:01:03;6.97;;;3.22;;
23009;SDS011;11671;49.990;8.028;2023-08-31T11:03:31;4.97;;;2.15;;
23009;SDS011;11671;49.990;8.028;2023-08-31T11:05:57;3.25;;;2.03;;
23009;SDS011;11671;49.990;8.028;2023-08-31T11:08:23;9.98;;;3.92;;
23009;SDS011;11671;49.990;8.028;2023-08-31T11:10:49;4.22;;;2.35;;
23009;SDS011;11671;49.990;8.028;2023-08-31T11:13:16;5.70;;;2.45;;
23009;SDS011;11671;49.990;8.028;2023-08-31T11:15:46;4.93;;;2.33;;
23009;SDS011;11671;49.990;8.028;2023-08-31T11:18:12;4.03;;;1.92;;
23009;SDS011;11671;49.990;8.028;2023-08-31T11:20:43;3.60;;;1.85;;
23009;SDS011;11671;49.990;8.028;2023-08-31T11:23:09;4.60;;;1.80;;
23009;SDS011;11671;49.990;8.028;2023-08-31T11:25:35;3.00;;;1.85;;
23009;SDS011;11671;49.990;8.028;2023-08-31T11:28:02;2.88;;;1.73;;
23009;SDS011;11671;49.990;8.028;2023-08-31T11:30:30;9.77;;;2.05;;
23009;SDS011;11671;49.990;8.028;2023-08-31T11:32:57;5.80;;;1.23;;
23009;SDS011;11671;49.990;8.028;2023-08-31T11:35:30;3.30;;;1.65;;
23009;SDS011;11671;49.990;8.028;2023-08-31T11:38:05;3.38;;;1.75;;
23009;SDS011;11671;49.990;8.028;2023-08-31T11:40:31;8.23;;;1.73;;
23009;SDS011;11671;49.990;8.028;2023-08-31T11:42:57;3.28;;;1.63;;
23009;SDS011;11671;49.990;8.028;2023-08-31T11:45:25;2.40;;;1.40;;
23009;SDS011;11671;49.990;8.028;2023-08-31T11:47:52;3.50;;;2.15;;
23009;SDS011;11671;49.990;8.028;2023-08-31T11:50:18;2.35;;;1.50;;
23009;SDS011;11671;49.990;8.028;2023-08-31T11:52:45;2.88;;;1.88;;
23009;SDS011;11671;49.990;8.028;2023-08-31T11:55:12;4.80;;;1.48;;
23009;SDS011;11671;49.990;8.028;2023-08-31T11:57:39;3.47;;;1.63;;
23009;SDS011;11671;49.990;8.028;2023-08-31T12:00:05;5.68;;;1.75;;
23009;SDS011;11671;49.990;8.028;2023-08-31T12:02:37;3.95;;;1.33;;
23009;SDS011;11671;49.990;8.028;2023-08-31T12:05:03;3.67;;;1.30;;
23009;SDS011;11671;49.990;8.028;2023-08-31T12:07:32;3.75;;;1.00;;
23009;SDS011;11671;49.990;8.028;2023-08-31T12:10:05;4.22;;;1.33;;
23009;SDS011;11671;49.990;8.028;2023-08-31T12:12:32;3.40;;;1.42;;
23009;SDS011;11671;49.990;8.028;2023-08-31T12:14:59;3.97;;;2.00;;
23009;SDS011;11671;49.990;8.028;2023-08-31T12:17:28;7.30;;;2.00;;
23009;SDS011;11671;49.990;8.028;2023-08-31T12:20:03;3.55;;;1.42;;
23009;SDS011;11671;49.990;8.028;2023-08-31T12:22:30;3.75;;;1.50;;
23009;SDS011;11671;49.990;8.028;2023-08-31T12:24:55;3.10;;;1.77;;
23009;SDS011;11671;49.990;8.028;2023-08-31T12:27:21;2.40;;;1.40;;
23009;SDS011;11671;49.990;8.028;2023-08-31T12:29:47;4.93;;;2.00;;
23009;SDS011;11671;49.990;8.028;2023-08-31T12:32:13;7.43;;;2.17;;
23009;SDS011;11671;49.990;8.028;2023-08-31T12:34:39;4.03;;;1.90;;
23009;SDS011;11671;49.990;8.028;2023-08-31T12:37:05;3.40;;;1.65;;
23009;SDS011;11671;49.990;8.028;2023-08-31T12:39:31;4.75;;;1.67;;
23009;SDS011;11671;49.990;8.028;2023-08-31T12:41:57;4.13;;;1.70;;
23009;SDS011;11671;49.990;8.028;2023-08-31T12:44:22;4.32;;;1.90;;
23009;SDS011;11671;49.990;8.028;2023-08-31T12:46:50;10.77;;;2.25;;
23009;SDS011;11671;49.990;8.028;2023-08-31T12:49:16;4.05;;;1.42;;
23009;SDS011;11671;49.990;8.028;2023-08-31T12:51:42;5.28;;;1.88;;
23009;SDS011;11671;49.990;8.028;2023-08-31T12:54:07;4.20;;;1.80;;
23009;SDS011;11671;49.990;8.028;2023-08-31T12:56:34;6.35;;;1.80;;
23009;SDS011;11671;49.990;8.028;2023-08-31T12:58:59;4.97;;;1.13;;
23009;SDS011;11671;49.990;8.028;2023-08-31T13:01:25;5.32;;;1.73;;
23009;SDS011;11671;49.990;8.028;2023-08-31T13:03:51;4.00;;;1.90;;
23009;SDS011;11671;49.990;8.028;2023-08-31T13:06:17;6.65;;;2.05;;
23009;SDS011;11671;49.990;8.028;2023-08-31T13:08:43;6.25;;;1.55;;
23009;SDS011;11671;49.990;8.028;2023-08-31T13:11:10;3.47;;;1.42;;
23009;SDS011;11671;49.990;8.028;2023-08-31T13:13:36;4.75;;;1.58;;
23009;SDS011;11671;49.990;8.028;2023-08-31T13:16:01;4.25;;;1.27;;
23009;SDS011;11671;49.990;8.028;2023-08-31T13:18:27;3.50;;;1.40;;
23009;SDS011;11671;49.990;8.028;2023-08-31T13:20:54;5.30;;;1.73;;
23009;SDS011;11671;49.990;8.028;2023-08-31T13:23:20;3.05;;;1.58;;
23009;SDS011;11671;49.990;8.028;2023-08-31T13:25:47;6.50;;;1.63;;
23009;SDS011;11671;49.990;8.028;2023-08-31T13:28:13;5.45;;;1.67;;
23009;SDS011;11671;49.990;8.028;2023-08-31T13:30:40;3.85;;;1.67;;
23009;SDS011;11671;49.990;8.028;2023-08-31T13:33:06;6.47;;;1.98;;
23009;SDS011;11671;49.990;8.028;2023-08-31T13:35:32;7.85;;;1.45;;
23009;SDS011;11671;49.990;8.028;2023-08-31T13:37:58;8.50;;;1.67;;
23009;SDS011;11671;49.990;8.028;2023-08-31T13:40:24;7.10;;;2.17;;
23009;SDS011;11671;49.990;8.028;2023-08-31T13:42:59;4.45;;;1.70;;
23009;SDS011;11671;49.990;8.028;2023-08-31T13:45:28;4.40;;;1.40;;
23009;SDS011;11671;49.990;8.028;2023-08-31T13:47:58;4.03;;;1.30;;
23009;SDS011;11671;49.990;8.028;2023-08-31T13:50:25;4.68;;;1.88;;
23009;SDS011;11671;49.990;8.028;2023-08-31T13:52:53;5.15;;;2.00;;
23009;SDS011;11671;49.990;8.028;2023-08-31T13:55:19;3.65;;;1.42;;
23009;SDS011;11671;49.990;8.028;2023-08-31T13:57:45;4.90;;;1.77;;
23009;SDS011;11671;49.990;8.028;2023-08-31T14:00:11;6.05;;;1.73;;
23009;SDS011;11671;49.990;8.028;2023-08-31T14:02:37;4.25;;;1.75;;
23009;SDS011;11671;49.990;8.028;2023-08-31T14:05:04;8.75;;;2.03;;
23009;SDS011;11671;49.990;8.028;2023-08-31T14:07:31;5.07;;;2.00;;
23009;SDS011;11671;49.990;8.028;2023-08-31T14:09:57;4.50;;;2.03;;
23009;SDS011;11671;49.990;8.028;2023-08-31T14:12:23;5.88;;;2.15;;
23009;SDS011;11671;49.990;8.028;2023-08-31T14:14:50;5.38;;;2.22;;
23009;SDS011;11671;49.990;8.028;2023-08-31T14:17:16;7.38;;;2.00;;
23009;SDS011;11671;49.990;8.028;2023-08-31T14:19:42;5.63;;;2.63;;
23009;SDS011;11671;49.990;8.028;2023-08-31T14:22:07;4.68;;;1.40;;
23009;SDS011;11671;49.990;8.028;2023-08-31T14:24:35;6.82;;;2.25;;
23009;SDS011;11671;49.990;8.028;2023-08-31T14:27:01;6.63;;;2.05;;
23009;SDS011;11671;49.990;8.028;2023-08-31T14:29:28;6.60;;;2.55;;
23009;SDS011;11671;49.990;8.028;2023-08-31T14:31:53;6.00;;;2.33;;
23009;SDS011;11671;49.990;8.028;2023-08-31T14:34:20;5.07;;;2.03;;
23009;SDS011;11671;49.990;8.028;2023-08-31T14:36:46;7.18;;;2.45;;
23009;SDS011;11671;49.990;8.028;2023-08-31T14:39:12;7.35;;;2.20;;
23009;SDS011;11671;49.990;8.028;2023-08-31T14:41:37;4.05;;;2.20;;
23009;SDS011;11671;49.990;8.028;2023-08-31T14:44:03;9.40;;;2.30;;
23009;SDS011;11671;49.990;8.028;2023-08-31T14:46:29;6.28;;;2.45;;
23009;SDS011;11671;49.990;8.028;2023-08-31T14:48:54;5.07;;;1.80;;
23009;SDS011;11671;49.990;8.028;2023-08-31T14:51:20;9.35;;;3.20;;
23009;SDS011;11671;49.990;8.028;2023-08-31T14:53:46;5.03;;;1.55;;
23009;SDS011;11671;49.990;8.028;2023-08-31T14:56:11;9.30;;;2.55;;
23009;SDS011;11671;49.990;8.028;2023-08-31T14:58:37;9.45;;;2.60;;
23009;SDS011;11671;49.990;8.028;2023-08-31T15:01:03;4.72;;;1.60;;
23009;SDS011;11671;49.990;8.028;2023-08-31T15:03:28;4.80;;;2.17;;
23009;SDS011;11671;49.990;8.028;2023-08-31T15:05:54;5.18;;;1.92;;
23009;SDS011;11671;49.990;8.028;2023-08-31T15:08:34;8.30;;;2.95;;
23009;SDS011;11671;49.990;8.028;2023-08-31T15:11:01;8.50;;;2.05;;
23009;SDS011;11671;49.990;8.028;2023-08-31T15:13:27;85.22;;;80.97;;
23009;SDS011;11671;49.990;8.028;2023-08-31T15:18:19;97.65;;;92.53;;
23009;SDS011;11671;49.990;8.028;2023-08-31T15:20:44;96.40;;;91.22;;
23009;SDS011;11671;49.990;8.028;2023-08-31T15:23:10;127.63;;;120.85;;
23009;SDS011;11671;49.990;8.028;2023-08-31T15:25:35;157.10;;;148.75;;
23009;SDS011;11671;49.990;8.028;2023-08-31T15:28:01;170.23;;;160.30;;
23009;SDS011;11671;49.990;8.028;2023-08-31T15:30:29;152.68;;;144.68;;
23009;SDS011;11671;49.990;8.028;2023-08-31T15:35:25;143.60;;;135.93;;
23009;SDS011;11671;49.990;8.028;2023-08-31T15:40:16;264.17;;;248.27;;
23009;SDS011;11671;49.990;8.028;2023-08-31T15:45:08;131.07;;;124.15;;
23009;SDS011;11671;49.990;8.028;2023-08-31T15:47:34;6.32;;;2.97;;
23009;SDS011;11671;49.990;8.028;2023-08-31T15:52:25;5.60;;;4.18;;
23009;SDS011;11671;49.990;8.028;2023-08-31T15:54:50;5.30;;;2.83;;
23009;SDS011;11671;49.990;8.028;2023-08-31T15:57:16;11.77;;;2.78;;
23009;SDS011;11671;49.990;8.028;2023-08-31T15:59:41;6.60;;;3.72;;
23009;SDS011;11671;49.990;8.028;2023-08-31T16:04:33;9.60;;;3.35;;
23009;SDS011;11671;49.990;8.028;2023-08-31T16:06:59;7.38;;;2.72;;
23009;SDS011;11671;49.990;8.028;2023-08-31T16:11:50;6.45;;;2.65;;
23009;SDS011;11671;49.990;8.028;2023-08-31T16:16:41;4.18;;;3.03;;
23009;SDS011;11671;49.990;8.028;2023-08-31T16:19:07;6.05;;;3.75;;
23009;SDS011;11671;49.990;8.028;2023-08-31T16:23:58;8.82;;;2.92;;
23009;SDS011;11671;49.990;8.028;2023-08-31T16:28:49;8.75;;;3.03;;
23009;SDS011;11671;49.990;8.028;2023-08-31T16:31:15;5.10;;;2.50;;
23009;SDS011;11671;49.990;8.028;2023-08-31T16:36:06;8.32;;;3.17;;
23009;SDS011;11671;49.990;8.028;2023-08-31T16:38:32;6.72;;;3.40;;
23009;SDS011;11671;49.990;8.028;2023-08-31T16:43:23;4.50;;;2.58;;
23009;SDS011;11671;49.990;8.028;2023-08-31T16:45:49;4.57;;;3.50;;
23009;SDS011;11671;49.990;8.028;2023-08-31T16:48:16;4.65;;;2.35;;
23009;SDS011;11671;49.990;8.028;2023-08-31T16:53:07;5.57;;;1.90;;
23009;SDS011;11671;49.990;8.028;2023-08-31T16:55:33;10.50;;;3.03;;
23009;SDS011;11671;49.990;8.028;2023-08-31T16:58:03;9.15;;;2.95;;
